Aérodrome :
LOGIN :

S'inscrire | Disclaimer

   EN    FR    IT 

 










Légende :    VFR   VFR Marginal   IFR   IFR Intensif   IFR Très Intensif
Visi : 
Plafond : 
>= 8 km
>= 3000ft
5 à 8 km
1000 à 3000 ft
1500m à 5 km
500 à 1000 ft
800 à 1500m
200 à 500 ft
< 800m
< 200 ft
Symboles :   Orages  Brouillard  Fortes neiges  Fortes précipitations  Vent > 20 kt
SIGMETs :   Divers  Orages  Givrage  Turbulence  Onde Orograph.  Cendres Volcan.






- Altitude de l'aérodrome : 194 ft
- Code IATA : IEG


EPZG - Zielona Gora Babimost

DERNIER METAR :
  • 310730Z 32009KT 280V350 9999 FEW008 12/10 Q1018

METARs EXPIRÉS :
  • 310700Z 30007KT 260V350 CAVOK 11/10 Q1019
  • 310630Z 31005KT 270V350 9999 FEW010 11/09 Q1019
  • 310600Z 31006KT 270V350 CAVOK 10/09 Q1019
  • 310530Z 33005KT 290V020 9999 -RA NSC 10/09 Q1019
  • 310500Z 31005KT 260V350 9999 -RA NSC 10/09 Q1019

TAF TAF EPZG
Valide du 31 à 06h jusqu'au 31 à 15h UTC


310530Z 3106/3115 32008KT CAVOK
BECMG 3107/3110 36016G27KT



MET'MAP, la Météo Aéronautique d'un coup d'oeil ! - Copyright ORBIFLY Décembre 2007 - Disclaimer

ORBIFLY MET'MAP TEAM :

Programmation & Développement : Alexandra Zaïnal
Sur une idée originale de : Baudouin d'Aumeries
Assistance à la programmation : Marc-Olivier Méhu
Soutien technique & logistique : Manuel Goepfert

Contact : metmap@orbifly.com




SOURCES & CREDITS :

   NOAA